Thursday, November 23, 2017, 7:08 AM GMT
Back to Local

CWFQ, Frelighsburg

Location: , , Canada Lat: 45.05
Local Time: 7:08 AM GMT ( 7:08 GMT) Lon: -72.833
Time Zone: GMT Elev: 498 ft

Show me the last for .
Show Coded

Time T Td Feel RH Dir Speed Gust Alt SLP Vis Weather Sky Remarks
2017-11-23 06:00 22 17 16 79 290° 5 - - 30.06 0 None
2017-11-23 05:00 23 17 14 80 280° 7 - - 30.07 0 None
2017-11-23 04:00 24 18 16 79 290° 6 - - 30.06 0 None
2017-11-23 03:00 25 20 19 83 300° 5 - - 30.04 0 None
2017-11-23 02:00 26 22 19 84 290° 6 - - 30.04 0 None
2017-11-23 01:00 28 24 22 86 300° 6 - - 30.03 0 None
2017-11-23 00:00 29 27 23 93 300° 6 - - 30.01 0 None
2017-11-22 23:00 30 28 24 91 290° 6 - - 29.99 0 None
2017-11-22 22:00 32 30 26 92 300° 6 - - 29.98 0 None
2017-11-22 21:00 33 32 30 93 320° 3 - - 29.96 0 None
2017-11-22 20:00 34 31 31 89 300° 3 - - 29.94 0 None
2017-11-22 19:00 33 31 - 93 280° 2 - - 29.93 0 1-hr Precip Total: 0.01"
2017-11-22 18:00 31 32 - 101 270° 2 - - 29.94 0 1-hr Precip Total: 0.02"
2017-11-22 17:00 32 31 29 97 280° 3 - - 29.95 0 1-hr Precip Total: 0.03"
2017-11-22 16:00 32 32 29 98 250° 3 - - 29.96 0 1-hr Precip Total: 0.04"
2017-11-22 15:00 32 32 - 100 290° 2 - - 29.96 0 1-hr Precip Total: 0.06"
2017-11-22 14:00 34 33 29 95 290° 6 - - 29.95 0 1-hr Precip Total: 0.01"
2017-11-22 13:00 38 36 33 91 300° 6 - - 29.91 0 None
2017-11-22 12:00 42 28 - 57 270° 2 - - 29.88 0 None
2017-11-22 11:00 44 28 43 52 190° 3 - - 29.87 0 None
2017-11-22 10:00 44 28 41 53 170° 5 - - 29.86 0 None
2017-11-22 09:00 45 28 43 51 180° 3 - - 29.86 0 None
2017-11-22 08:00 44 29 43 55 180° 3 - - 29.86 0 None

Support USWX by starting your Amazon purchase here.